Time;durP1;ratioP1;P1;durP2;ratioP2;P2;SDS_P1;SDS_P2;PMS_P1;PMS_P2;Temp;Humidity;BMP_temperature;BMP_pressure;BME280_temperature;BME280_humidity;BME280_pressure;Samples;Min_cycle;Max_cycle;Signal;HPM_P1;HPM_P2
2022/06/12 00:02:16;;;;;;;;;1.00;1.00;;;;;18.67;49.77;101576.03;5015204;28;45332;-77
2022/06/12 00:04:41;;;;;;;;;2.00;1.25;;;;;18.60;49.60;101583.44;5014627;28;45624;-77
2022/06/12 00:07:07;;;;;;;;;2.00;1.00;;;;;18.54;49.02;101579.19;5022980;28;45387;-76
2022/06/12 00:09:32;;;;;;;;;1.00;1.00;;;;;18.47;48.69;101572.31;5035269;28;45438;-76
2022/06/12 00:11:58;;;;;;;;;0.75;0.75;;;;;18.52;49.65;101574.81;5026160;28;45546;-76
2022/06/12 00:14:23;;;;;;;;;2.25;1.25;;;;;18.50;49.19;101569.50;4998306;28;45420;-77
2022/06/12 00:16:52;;;;;;;;;1.50;1.00;;;;;18.40;49.22;101562.75;4994021;28;45562;-74
2022/06/12 00:19:17;;;;;;;;;1.00;1.00;;;;;18.44;49.05;101564.38;4994798;28;45339;-77
2022/06/12 00:21:43;;;;;;;;;1.00;1.00;;;;;18.41;49.47;101565.34;4994453;28;45423;-75
2022/06/12 00:24:12;;;;;;;;;1.50;1.50;;;;;18.39;49.61;101566.38;4997989;28;45955;-77
2022/06/12 00:26:42;;;;;;;;;2.00;1.00;;;;;18.38;49.17;101567.28;5013791;28;45515;-75
2022/06/12 00:29:16;;;;;;;;;1.00;1.00;;;;;18.33;49.48;101572.81;4999514;28;45391;-76
2022/06/12 00:31:54;;;;;;;;;2.00;1.00;;;;;18.33;49.81;101569.28;4994172;28;45442;-76
2022/06/12 00:34:26;;;;;;;;;2.00;0.75;;;;;18.28;49.86;101564.06;4994384;28;46092;-77
2022/06/12 00:36:53;;;;;;;;;1.50;1.00;;;;;18.23;49.81;101572.25;5004927;28;45395;-78
2022/06/12 00:39:19;;;;;;;;;2.50;1.00;;;;;18.27;50.00;101579.25;5016703;28;45384;-77
2022/06/12 00:41:47;;;;;;;;;3.75;2.00;;;;;18.31;50.09;101579.13;5037334;28;45433;-76
2022/06/12 00:44:25;;;;;;;;;0.50;0.50;;;;;18.35;49.99;101584.31;5008681;28;46446;-77
2022/06/12 00:46:55;;;;;;;;;5.25;1.00;;;;;18.33;49.95;101582.66;5012552;28;45411;-78
2022/06/12 00:49:39;;;;;;;;;1.00;0.00;;;;;18.34;50.65;101584.38;5012172;28;45463;-75
2022/06/12 00:52:34;;;;;;;;;3.00;2.00;;;;;18.34;50.26;101582.59;5014398;28;45443;-76
2022/06/12 00:55:14;;;;;;;;;2.75;2.00;;;;;18.27;50.37;101575.72;5017059;28;46377;-77
2022/06/12 00:57:40;;;;;;;;;2.00;2.00;;;;;18.29;50.08;101577.41;5010682;28;45406;-77
2022/06/12 01:00:11;;;;;;;;;1.50;1.50;;;;;18.28;50.54;101575.66;5003998;28;45460;-77
2022/06/12 01:02:38;;;;;;;;;1.00;1.00;;;;;18.28;50.99;101567.63;5014078;28;45656;-77
2022/06/12 01:07:53;;;;;;;;;1.00;1.00;;;;;18.23;51.40;101571.41;5018494;28;45335;-78
2022/06/12 01:10:20;;;;;;;;;2.00;2.00;;;;;18.24;50.81;101573.16;5024763;28;45281;-76
2022/06/12 01:12:54;;;;;;;;;1.00;1.00;;;;;18.19;51.05;101572.44;5013006;28;45480;-77
2022/06/12 01:15:44;;;;;;;;;3.75;1.00;;;;;18.18;50.91;101576.06;4997106;28;46151;-77
2022/06/12 01:18:14;;;;;;;;;0.50;0.50;;;;;18.11;51.45;101572.72;4994608;28;45341;-76
2022/06/12 01:21:04;;;;;;;;;2.00;1.00;;;;;18.11;51.27;101573.59;4997599;28;45517;-77
2022/06/12 01:23:57;;;;;;;;;2.25;2.25;;;;;18.03;51.42;101575.66;4997056;28;45511;-77
2022/06/12 01:26:35;;;;;;;;;1.25;1.25;;;;;17.96;51.62;101570.59;5009903;28;46397;-77
2022/06/12 01:29:13;;;;;;;;;0.50;0.50;;;;;17.83;52.12;101570.13;5017128;28;45561;-77
2022/06/12 01:31:45;;;;;;;;;1.75;1.00;;;;;17.81;52.45;101586.22;5016368;28;45533;-78
2022/06/12 01:34:16;;;;;;;;;1.25;0.50;;;;;17.82;52.22;101574.56;5016846;28;45506;-76
2022/06/12 01:37:19;;;;;;;;;1.00;1.00;;;;;17.79;52.17;101577.34;5031558;28;46082;-77
2022/06/12 01:39:53;;;;;;;;;2.00;1.00;;;;;17.77;52.45;101579.22;5024127;28;45534;-77
2022/06/12 01:42:52;;;;;;;;;1.50;1.50;;;;;17.78;52.18;101580.97;5019042;28;45379;-78
2022/06/12 01:45:36;;;;;;;;;1.25;1.00;;;;;17.79;51.60;101584.50;5015475;28;45432;-77
2022/06/12 01:48:28;;;;;;;;;2.25;2.25;;;;;17.75;51.76;101586.44;4997304;28;46199;-77
2022/06/12 01:51:08;;;;;;;;;1.00;1.00;;;;;17.63;51.57;101581.47;4996467;28;45346;-77
2022/06/12 01:53:59;;;;;;;;;1.75;0.75;;;;;17.54;52.20;101583.53;4995216;28;45495;-78
2022/06/12 01:56:39;;;;;;;;;4.00;3.00;;;;;17.49;52.67;101582.81;4985183;28;45600;-77
2022/06/12 01:59:26;;;;;;;;;1.25;0.75;;;;;17.50;52.52;101592.56;4996900;28;46205;-78
2022/06/12 02:01:58;;;;;;;;;1.00;1.00;;;;;17.48;52.10;101578.41;4996174;28;45490;-78
2022/06/12 02:04:38;;;;;;;;;1.00;0.50;;;;;17.45;52.35;101591.84;5000195;28;45529;-76
2022/06/12 02:07:33;;;;;;;;;2.75;2.00;;;;;17.39;52.69;101589.38;5014419;28;45473;-77
2022/06/12 02:10:07;;;;;;;;;1.00;1.00;;;;;17.35;52.45;101582.38;5022466;28;45488;-76
2022/06/12 02:15:55;;;;;;;;;1.00;1.00;;;;;17.14;52.87;101592.84;4996659;28;45394;-78
2022/06/12 02:18:39;;;;;;;;;1.50;0.50;;;;;17.16;52.63;101596.34;4997035;28;45436;-77
2022/06/12 02:21:37;;;;;;;;;2.00;1.50;;;;;17.16;52.61;101582.13;4996561;28;46313;-77
2022/06/12 02:24:08;;;;;;;;;1.00;1.00;;;;;17.09;52.81;101592.09;4996546;28;45370;-76
2022/06/12 02:27:00;;;;;;;;;1.00;1.00;;;;;17.11;53.17;101595.63;5002553;28;45486;-76
2022/06/12 02:29:36;;;;;;;;;3.00;1.00;;;;;17.05;53.06;101606.50;5015368;28;45402;-77
2022/06/12 02:32:08;;;;;;;;;2.00;0.00;;;;;17.06;53.56;101608.22;5035126;28;45464;-77
2022/06/12 02:34:38;;;;;;;;;0.00;0.00;;;;;17.09;53.29;101605.44;5037561;28;45508;-77
2022/06/12 02:37:15;;;;;;;;;1.00;1.00;;;;;17.11;53.22;101603.63;5036280;28;45376;-77
2022/06/12 02:39:47;;;;;;;;;2.00;1.00;;;;;17.08;53.69;101603.72;5042473;28;45403;-77
2022/06/12 02:42:27;;;;;;;;;2.00;0.25;;;;;17.02;52.77;101601.22;5040836;28;45510;-78
2022/06/12 02:45:06;;;;;;;;;2.00;1.00;;;;;17.00;53.64;101592.38;5027727;28;45391;-77
2022/06/12 02:47:36;;;;;;;;;1.00;1.00;;;;;17.04;53.07;101600.25;5014923;28;45773;-77
2022/06/12 02:50:04;;;;;;;;;3.00;1.00;;;;;16.97;53.64;101598.69;5015391;28;45381;-77
2022/06/12 02:53:06;;;;;;;;;0.00;0.00;;;;;16.97;53.34;101596.03;5014155;28;47145;-76
2022/06/12 02:55:51;;;;;;;;;1.00;0.75;;;;;16.92;53.60;101599.78;5015488;28;45403;-78
2022/06/12 02:58:44;;;;;;;;;0.25;0.00;;;;;16.87;53.53;101608.78;4995497;28;45568;-77
2022/06/12 03:01:17;;;;;;;;;1.25;1.25;;;;;16.77;53.90;101596.59;5013896;28;45535;-77
2022/06/12 03:03:55;;;;;;;;;5.00;1.50;;;;;16.72;54.71;101603.88;5015907;28;45445;-76
2022/06/12 03:06:26;;;;;;;;;1.50;1.50;;;;;16.66;53.97;101586.25;5016328;28;45496;-77
2022/06/12 03:08:55;;;;;;;;;1.00;1.00;;;;;16.62;54.37;101597.06;5014457;28;45499;-77
2022/06/12 03:11:24;;;;;;;;;0.00;0.00;;;;;16.61;54.49;101597.97;5036144;28;45395;-78
2022/06/12 03:13:52;;;;;;;;;4.75;1.00;;;;;16.57;54.56;101599.00;5016579;28;45500;-76
2022/06/12 03:16:19;;;;;;;;;1.75;1.50;;;;;16.50;54.82;101596.50;4995636;28;45585;-78
2022/06/12 03:18:54;;;;;;;;;0.75;0.75;;;;;16.51;55.07;101602.69;5014933;28;45520;-77
2022/06/12 03:21:39;;;;;;;;;2.00;2.00;;;;;16.55;55.51;101600.81;5030282;28;45554;-79
2022/06/12 03:24:16;;;;;;;;;5.00;3.50;;;;;16.59;54.94;101597.13;5030238;28;47570;-78
2022/06/12 03:26:47;;;;;;;;;2.50;1.00;;;;;16.61;54.35;101605.97;5015388;28;45473;-77
2022/06/12 03:29:34;;;;;;;;;2.25;1.00;;;;;16.59;54.18;101598.00;5004623;28;45563;-77
2022/06/12 03:32:14;;;;;;;;;0.25;0.00;;;;;16.61;54.74;101600.63;4995127;28;45529;-77
2022/06/12 03:34:42;;;;;;;;;0.75;0.75;;;;;16.67;54.67;101595.09;5023620;28;46200;-78
2022/06/12 03:37:45;;;;;;;;;0.25;0.25;;;;;16.69;54.31;101598.63;5040368;28;45394;-77
2022/06/12 03:40:28;;;;;;;;;1.00;1.00;;;;;16.70;54.52;101597.69;4991258;28;45472;-76
2022/06/12 03:43:08;;;;;;;;;11.00;9.50;;;;;16.66;54.50;101585.38;4995148;28;45476;-77
2022/06/12 03:45:43;;;;;;;;;1.00;1.00;;;;;16.63;54.05;101596.13;5005041;28;45445;-77
2022/06/12 03:48:11;;;;;;;;;0.50;0.50;;;;;16.69;54.06;101598.63;5017471;28;45577;-78
2022/06/12 03:50:42;;;;;;;;;0.50;0.00;;;;;16.70;54.71;101600.34;5014530;28;45502;-78
2022/06/12 03:53:13;;;;;;;;;0.00;0.00;;;;;16.67;54.63;101596.00;5014756;28;45431;-78
2022/06/12 03:58:36;;;;;;;;;0.00;0.00;;;;;16.70;54.49;101595.91;5013624;28;45469;-77
2022/06/12 04:01:02;;;;;;;;;1.75;1.75;;;;;16.72;53.85;101592.31;5014778;28;45494;-78
2022/06/12 04:03:33;;;;;;;;;0.00;0.00;;;;;16.71;54.67;101594.09;5002864;28;45664;-78
2022/06/12 04:06:03;;;;;;;;;1.75;1.00;;;;;16.72;53.84;101593.19;4998916;28;46982;-75
2022/06/12 04:08:43;;;;;;;;;4.25;1.25;;;;;16.68;53.89;101586.19;5000882;28;46256;-76
2022/06/12 04:11:12;;;;;;;;;2.00;2.00;;;;;16.69;54.18;101578.13;5010531;28;45368;-78
2022/06/12 04:13:39;;;;;;;;;1.50;1.00;;;;;16.79;54.43;101589.44;5006790;28;45559;-78
2022/06/12 04:16:24;;;;;;;;;1.25;1.25;;;;;16.87;53.98;101595.44;5014003;28;45462;-78
2022/06/12 04:18:49;;;;;;;;;2.50;2.00;;;;;17.08;53.53;101585.03;5012608;28;45489;-77
2022/06/12 04:21:26;;;;;;;;;1.00;1.00;;;;;17.42;52.96;101575.06;5013961;28;45514;-76
2022/06/12 04:24:09;;;;;;;;;3.00;3.00;;;;;17.87;51.89;101583.31;5007829;28;45398;-76
2022/06/12 04:26:51;;;;;;;;;1.00;1.00;;;;;18.37;50.76;101582.47;4992699;28;46195;-77
2022/06/12 04:29:26;;;;;;;;;3.00;2.00;;;;;18.81;49.89;101587.06;4993931;28;45363;-77
2022/06/12 04:31:55;;;;;;;;;1.00;1.00;;;;;19.26;48.58;101599.63;4997598;28;45428;-77
2022/06/12 04:34:29;;;;;;;;;1.00;1.00;;;;;19.69;47.63;101595.19;5016292;28;45508;-77
2022/06/12 04:36:58;;;;;;;;;1.00;1.00;;;;;20.11;46.85;101588.06;5034941;28;45604;-78
2022/06/12 04:39:28;;;;;;;;;4.00;1.25;;;;;20.50;45.55;101597.94;5034866;28;45369;-77
2022/06/12 04:41:55;;;;;;;;;1.50;0.00;;;;;20.75;44.94;101592.34;5034979;28;45336;-76
2022/06/12 04:44:20;;;;;;;;;1.75;1.00;;;;;20.97;44.10;101585.06;5023968;28;45459;-76
2022/06/12 04:46:48;;;;;;;;;1.75;1.00;;;;;21.14;43.39;101592.34;5010234;28;45503;-76
2022/06/12 04:49:17;;;;;;;;;2.50;1.00;;;;;21.37;43.10;101578.63;4993793;28;45373;-77
2022/06/12 04:51:43;;;;;;;;;0.25;0.25;;;;;21.60;42.32;101572.13;4994099;28;45793;-77
2022/06/12 04:54:08;;;;;;;;;1.00;1.00;;;;;21.99;41.76;101579.09;4993684;28;45524;-77
2022/06/12 04:56:34;;;;;;;;;1.00;1.00;;;;;22.30;41.01;101576.59;4993791;28;46320;-78
2022/06/12 04:59:01;;;;;;;;;3.00;1.00;;;;;22.82;40.35;101572.91;4998086;28;45589;-77
2022/06/12 05:01:27;;;;;;;;;1.75;1.75;;;;;23.17;39.27;101570.97;5013711;28;45567;-78
2022/06/12 05:03:52;;;;;;;;;0.00;0.00;;;;;23.10;40.01;101569.56;4996861;28;45449;-77
2022/06/12 05:06:18;;;;;;;;;3.00;1.00;;;;;23.60;38.97;101563.03;4996612;28;46360;-77
2022/06/12 05:08:45;;;;;;;;;2.00;0.25;;;;;23.97;37.97;101569.91;5006268;28;45422;-77
2022/06/12 05:11:11;;;;;;;;;0.50;0.00;;;;;24.27;36.67;101572.56;5015897;28;45361;-76
2022/06/12 05:13:36;;;;;;;;;0.50;0.50;;;;;24.41;37.05;101569.84;5013834;28;45519;-78
2022/06/12 05:16:02;;;;;;;;;2.75;1.00;;;;;24.08;36.84;101567.41;5013611;28;45372;-77
2022/06/12 05:18:28;;;;;;;;;2.00;1.00;;;;;23.47;37.36;101563.84;5011716;28;45511;-77
2022/06/12 05:20:54;;;;;;;;;2.00;1.00;;;;;23.48;38.13;101560.22;5002595;28;45397;-76
2022/06/12 05:23:20;;;;;;;;;1.00;0.00;;;;;23.96;37.48;101558.25;4993968;28;45362;-78
2022/06/12 05:25:46;;;;;;;;;1.25;1.00;;;;;24.50;36.10;101556.75;4994683;28;45609;-77
2022/06/12 05:28:14;;;;;;;;;1.00;0.00;;;;;25.13;35.28;101563.53;5032664;28;45418;-77
2022/06/12 05:30:40;;;;;;;;;0.00;0.00;;;;;25.44;34.55;101559.66;5033023;28;45419;-76
2022/06/12 05:33:06;;;;;;;;;1.50;0.75;;;;;25.99;33.85;101555.00;5016303;28;45401;-77
2022/06/12 05:35:33;;;;;;;;;0.50;0.25;;;;;26.37;33.03;101548.75;5001441;28;45312;-78
2022/06/12 05:38:00;;;;;;;;;1.00;1.00;;;;;26.89;32.19;101551.38;4993520;28;45439;-76
2022/06/12 05:40:33;;;;;;;;;0.75;0.75;;;;;27.41;32.04;101554.78;4995914;28;45476;-77
2022/06/12 05:43:00;;;;;;;;;1.00;0.00;;;;;27.84;30.34;101556.88;4997096;28;45437;-77
2022/06/12 05:45:28;;;;;;;;;1.00;1.00;;;;;28.15;30.04;101555.38;5012007;28;46364;-78
2022/06/12 05:47:55;;;;;;;;;0.00;0.00;;;;;28.67;28.90;101560.38;5014945;28;45295;-76
2022/06/12 05:50:26;;;;;;;;;0.00;0.00;;;;;29.25;29.21;101560.13;5017135;28;45355;-77
2022/06/12 05:52:51;;;;;;;;;0.00;0.00;;;;;29.67;28.14;101565.66;5005295;28;45508;-77
2022/06/12 05:55:17;;;;;;;;;1.00;0.00;;;;;29.63;27.67;101564.19;4996172;28;45975;-78
2022/06/12 05:57:42;;;;;;;;;0.75;0.75;;;;;28.93;28.34;101563.66;4997322;28;45446;-76
2022/06/12 06:00:18;;;;;;;;;1.00;0.25;;;;;28.67;29.51;101571.25;4996357;28;45433;-78
2022/06/12 06:02:44;;;;;;;;;1.00;1.00;;;;;29.04;28.70;101576.34;5034430;28;45408;-77
2022/06/12 06:05:12;;;;;;;;;0.00;0.00;;;;;29.27;27.67;101579.06;5024341;28;46195;-77
2022/06/12 06:07:38;;;;;;;;;0.00;0.00;;;;;30.05;27.50;101574.22;5014027;28;45411;-77
2022/06/12 06:10:06;;;;;;;;;1.00;0.00;;;;;30.37;26.33;101573.25;4996420;28;45490;-77
2022/06/12 06:12:31;;;;;;;;;0.00;0.00;;;;;30.44;25.85;101569.03;4996172;28;45572;-78
2022/06/12 06:14:57;;;;;;;;;0.00;0.00;;;;;30.29;26.15;101566.66;5015639;28;45700;-78
2022/06/12 06:17:22;;;;;;;;;0.00;0.00;;;;;29.73;27.27;101581.47;5017316;28;45636;-78
2022/06/12 06:19:48;;;;;;;;;1.00;1.00;;;;;29.75;26.89;101578.59;5016319;28;45389;-77
2022/06/12 06:22:16;;;;;;;;;2.00;1.00;;;;;29.62;27.62;101577.91;5016077;28;45666;-77
2022/06/12 06:24:42;;;;;;;;;0.00;0.00;;;;;29.40;27.47;101583.31;5013911;28;45583;-77
2022/06/12 06:27:09;;;;;;;;;0.75;0.75;;;;;28.84;27.63;101589.75;5015522;28;45457;-77
2022/06/12 06:29:36;;;;;;;;;0.00;0.00;;;;;28.13;28.57;101583.66;5015829;28;45577;-77
2022/06/12 06:32:02;;;;;;;;;1.00;0.00;;;;;27.88;28.80;101595.53;5014221;28;45631;-78
2022/06/12 06:34:28;;;;;;;;;0.50;0.50;;;;;27.58;28.81;101588.78;5020476;28;45781;-78
2022/06/12 06:36:53;;;;;;;;;0.25;0.25;;;;;27.53;29.26;101590.94;5016715;28;45456;-76
2022/06/12 06:39:19;;;;;;;;;0.00;0.00;;;;;27.61;29.04;101588.53;5008345;28;45368;-78
2022/06/12 06:41:44;;;;;;;;;0.00;0.00;;;;;27.58;29.36;101589.63;5008263;28;45380;-78
2022/06/12 06:46:53;;;;;;;;;0.00;0.00;;;;;27.95;28.46;101594.06;5014670;28;45509;-78
2022/06/12 06:49:20;;;;;;;;;1.00;0.00;;;;;28.38;27.64;101578.97;5010995;28;45330;-78
2022/06/12 06:51:45;;;;;;;;;1.00;0.00;;;;;28.83;27.25;101588.03;4995199;28;45378;-78
2022/06/12 06:54:10;;;;;;;;;0.00;0.00;;;;;29.01;27.47;101590.22;5009021;28;45441;-79
2022/06/12 06:56:36;;;;;;;;;1.50;1.00;;;;;29.18;26.70;101595.13;5002396;28;45299;-79
2022/06/12 06:59:01;;;;;;;;;0.75;0.00;;;;;29.04;27.63;101592.69;4995944;28;45390;-78
2022/06/12 07:01:26;;;;;;;;;2.00;0.00;;;;;29.07;28.04;101606.88;4997360;28;45707;-77
2022/06/12 07:03:53;;;;;;;;;0.00;0.00;;;;;29.21;26.82;101597.63;5016534;28;46304;-77
2022/06/12 07:06:19;;;;;;;;;0.00;0.00;;;;;29.54;26.39;101590.31;5013017;28;45550;-77
2022/06/12 07:08:44;;;;;;;;;0.00;0.00;;;;;29.58;26.02;101594.53;5021451;28;45460;-78
2022/06/12 07:11:10;;;;;;;;;0.00;0.00;;;;;29.65;26.48;101588.56;5013927;28;45402;-76
2022/06/12 07:13:35;;;;;;;;;0.00;0.00;;;;;29.43;25.67;101593.09;5010541;28;46445;-78
2022/06/12 07:16:00;;;;;;;;;1.50;0.00;;;;;29.29;25.74;101594.28;5000672;28;45585;-78
2022/06/12 07:18:26;;;;;;;;;0.00;0.00;;;;;29.33;26.46;101578.53;5020696;28;45485;-77
2022/06/12 07:20:55;;;;;;;;;2.75;1.00;;;;;29.56;26.12;101585.63;5028230;28;45680;-77
2022/06/12 07:23:22;;;;;;;;;0.00;0.00;;;;;30.18;26.56;101593.97;5027561;28;46228;-78
2022/06/12 07:25:58;;;;;;;;;0.00;0.00;;;;;30.96;24.27;101597.06;5025706;28;46776;-78
2022/06/12 07:28:24;;;;;;;;;0.75;0.00;;;;;31.48;24.32;101596.88;5011920;28;45559;-79
2022/06/12 07:30:50;;;;;;;;;0.00;0.00;;;;;31.70;23.86;101584.84;5015824;28;45411;-79
2022/06/12 07:33:17;;;;;;;;;1.00;0.00;;;;;31.56;23.89;101598.91;5027122;28;45660;-79
2022/06/12 07:35:44;;;;;;;;;2.00;1.00;;;;;31.08;24.53;101595.13;5026007;28;45467;-79
2022/06/12 07:38:13;;;;;;;;;0.00;0.00;;;;;30.94;24.41;101598.19;5020234;28;45540;-79
2022/06/12 07:40:44;;;;;;;;;2.00;1.00;;;;;31.53;24.04;101596.44;5033885;28;45463;-78
2022/06/12 07:43:10;;;;;;;;;0.75;0.75;;;;;31.78;24.57;101607.81;5018061;28;45491;-78
2022/06/12 07:45:37;;;;;;;;;1.25;1.25;;;;;32.08;24.29;101605.91;5026529;28;45396;-79
2022/06/12 07:48:03;;;;;;;;;1.75;0.75;;;;;32.58;24.00;101602.91;5008007;28;45592;-79
2022/06/12 07:50:29;;;;;;;;;0.00;0.00;;;;;32.98;23.62;101606.34;5019106;28;45475;-78
2022/06/12 07:52:55;;;;;;;;;1.00;1.00;;;;;33.39;22.85;101587.63;5031834;28;45946;-79
2022/06/12 07:55:21;;;;;;;;;1.50;0.75;;;;;33.76;22.53;101592.97;5028632;28;45479;-80
2022/06/12 07:57:48;;;;;;;;;1.00;1.00;;;;;33.76;22.45;101594.84;5014634;28;45526;-78
2022/06/12 08:00:15;;;;;;;;;1.00;1.00;;;;;33.51;22.13;101591.00;5030547;28;45330;-78
2022/06/12 08:02:45;;;;;;;;;1.00;1.00;;;;;33.78;23.17;101593.69;5008362;28;45437;-73
2022/06/12 08:05:11;;;;;;;;;0.00;0.00;;;;;34.27;21.75;101592.31;5023651;28;45770;-75
2022/06/12 08:07:37;;;;;;;;;2.00;1.00;;;;;34.50;22.42;101584.41;5017939;28;45588;-76
2022/06/12 08:10:04;;;;;;;;;1.00;1.00;;;;;34.52;22.27;101591.44;5016162;28;45443;-76
2022/06/12 08:12:31;;;;;;;;;1.00;1.00;;;;;34.38;22.50;101589.31;5010672;28;46230;-76
2022/06/12 08:14:57;;;;;;;;;0.00;0.00;;;;;34.20;22.36;101592.09;5022312;28;45367;-76
2022/06/12 08:17:22;;;;;;;;;0.00;0.00;;;;;34.48;22.17;101594.66;5013786;28;45478;-77
2022/06/12 08:22:32;;;;;;;;;1.00;1.00;;;;;34.05;22.36;101586.31;5018750;28;45803;-76
2022/06/12 08:24:58;;;;;;;;;2.00;0.25;;;;;33.98;22.40;101587.97;5018278;28;45556;-76
2022/06/12 08:27:23;;;;;;;;;1.25;1.25;;;;;34.02;21.88;101589.41;5018292;28;45562;-75
2022/06/12 08:29:49;;;;;;;;;1.75;1.00;;;;;33.92;22.27;101585.88;5014650;28;45590;-77
2022/06/12 08:32:20;;;;;;;;;3.00;3.00;;;;;34.15;22.62;101583.50;5022638;28;46079;-77
2022/06/12 08:34:53;;;;;;;;;1.00;1.00;;;;;34.38;21.65;101572.84;5011420;28;45751;-78
2022/06/12 08:37:23;;;;;;;;;2.00;2.00;;;;;34.26;21.85;101575.00;5021509;28;45514;-77
2022/06/12 08:39:49;;;;;;;;;3.00;1.75;;;;;34.29;21.96;101568.34;5008173;28;45579;-77
2022/06/12 08:42:20;;;;;;;;;1.00;1.00;;;;;34.33;21.12;101575.22;5010242;28;46072;-78
2022/06/12 08:44:50;;;;;;;;;3.00;1.00;;;;;34.32;21.68;101573.50;5015458;28;45407;-79
2022/06/12 08:47:35;;;;;;;;;2.00;1.00;;;;;34.49;21.68;101566.22;5007228;28;45498;-78
2022/06/12 08:50:16;;;;;;;;;1.50;1.50;;;;;34.23;21.10;101569.81;5015104;28;45428;-79
2022/06/12 08:52:50;;;;;;;;;2.25;2.25;;;;;34.34;22.12;101565.97;5020897;28;45492;-79
2022/06/12 08:55:46;;;;;;;;;2.00;2.00;;;;;34.45;22.18;101564.81;5022645;28;46185;-78
2022/06/12 08:58:17;;;;;;;;;1.00;1.00;;;;;34.74;21.87;101561.69;5019140;28;45392;-78
2022/06/12 09:00:43;;;;;;;;;2.50;1.50;;;;;34.74;21.20;101555.34;5030364;28;45615;-79
2022/06/12 09:03:15;;;;;;;;;1.50;1.50;;;;;34.90;21.06;101549.94;5021687;28;45589;-78
2022/06/12 09:06:01;;;;;;;;;1.00;1.00;;;;;35.17;20.30;101551.53;5020004;28;45525;-77
2022/06/12 09:08:31;;;;;;;;;2.00;1.75;;;;;35.50;20.76;101556.22;5015860;28;45423;-77
2022/06/12 09:11:15;;;;;;;;;3.00;0.75;;;;;35.66;20.47;101566.34;5024078;28;45329;-77
2022/06/12 09:14:05;;;;;;;;;2.00;2.00;;;;;35.67;20.35;101549.69;5007807;28;45433;-77
2022/06/12 09:16:45;;;;;;;;;1.00;1.00;;;;;35.34;20.62;101549.69;5018836;28;45467;-77
2022/06/12 09:19:24;;;;;;;;;0.00;0.00;;;;;35.34;20.57;101551.59;5017632;28;45471;-79
2022/06/12 09:22:09;;;;;;;;;2.00;2.00;;;;;35.52;20.03;101549.50;5028083;28;46557;-77
2022/06/12 09:24:40;;;;;;;;;3.75;1.00;;;;;35.41;19.57;101552.63;5011257;28;45606;-78
2022/06/12 09:27:21;;;;;;;;;0.00;0.00;;;;;34.96;20.23;101551.16;5027343;28;45383;-78
2022/06/12 09:30:08;;;;;;;;;3.00;0.00;;;;;35.14;20.21;101557.34;5032141;28;45554;-80
2022/06/12 09:32:42;;;;;;;;;0.00;0.00;;;;;35.13;19.29;101565.75;5020004;28;45377;-79
2022/06/12 09:35:16;;;;;;;;;1.00;1.00;;;;;35.27;20.47;101551.38;5011214;28;46475;-78
2022/06/12 09:38:24;;;;;;;;;1.00;0.00;;;;;35.42;19.96;101550.72;5018252;28;45497;-78
2022/06/12 09:40:52;;;;;;;;;0.50;0.50;;;;;35.54;19.57;101563.09;5000958;28;45448;-77
2022/06/12 09:43:52;;;;;;;;;1.50;0.00;;;;;35.77;19.99;101560.53;5014492;28;45344;-79
2022/06/12 09:46:33;;;;;;;;;0.25;0.00;;;;;35.65;20.01;101559.13;4978116;28;47326;-78
2022/06/12 09:49:28;;;;;;;;;1.00;1.00;;;;;35.31;20.02;101552.78;4997519;28;45585;-77
2022/06/12 09:52:17;;;;;;;;;0.50;0.50;;;;;35.16;20.12;101559.94;5001893;28;45451;-77
2022/06/12 09:54:49;;;;;;;;;1.00;0.50;;;;;35.06;19.87;101554.59;5002226;28;45506;-78
2022/06/12 09:57:21;;;;;;;;;5.50;5.50;;;;;35.10;21.10;101555.97;4987984;28;45486;-77
2022/06/12 09:59:52;;;;;;;;;1.50;1.00;;;;;34.92;20.74;101558.00;4999374;28;45560;-78
2022/06/12 10:02:30;;;;;;;;;1.75;1.75;;;;;34.65;21.56;101551.69;4994178;28;45452;-79
2022/06/12 10:05:13;;;;;;;;;0.75;0.75;;;;;34.67;21.63;101556.00;4999094;28;45461;-78
2022/06/12 10:08:03;;;;;;;;;1.00;0.00;;;;;35.08;21.79;101558.03;5001494;28;47482;-79
2022/06/12 10:10:47;;;;;;;;;1.00;1.00;;;;;35.10;20.37;101547.72;5001470;28;45446;-78
2022/06/12 10:13:23;;;;;;;;;0.00;0.00;;;;;35.20;21.57;101550.34;4992509;28;45413;-79
2022/06/12 10:15:55;;;;;;;;;1.25;0.00;;;;;35.40;20.75;101545.41;4998954;28;45499;-78
2022/06/12 10:18:24;;;;;;;;;2.00;0.25;;;;;35.35;21.24;101548.66;5008734;28;46167;-79
2022/06/12 10:20:55;;;;;;;;;1.00;1.00;;;;;35.44;21.47;101546.78;5008521;28;45577;-78
2022/06/12 10:23:21;;;;;;;;;2.25;1.75;;;;;35.33;20.56;101539.75;5004499;28;45420;-79
2022/06/12 10:25:52;;;;;;;;;1.25;1.25;;;;;35.14;20.54;101545.53;5028980;28;45601;-82
2022/06/12 10:28:33;;;;;;;;;1.50;1.50;;;;;35.13;21.36;101550.13;5027877;28;47932;-81
2022/06/12 10:31:20;;;;;;;;;2.50;2.50;;;;;35.28;21.08;101533.03;5031142;28;45360;-79
2022/06/12 10:33:49;;;;;;;;;2.75;1.75;;;;;35.19;20.93;101538.47;5013002;28;45521;-77
2022/06/12 10:36:24;;;;;;;;;1.25;1.25;;;;;35.26;20.56;101533.19;5014615;28;45559;-76
2022/06/12 10:38:49;;;;;;;;;2.50;2.50;;;;;35.33;20.28;101527.88;5010692;28;47254;-77
2022/06/12 10:41:30;;;;;;;;;1.00;0.00;;;;;35.09;21.31;101532.31;5024504;28;45469;-77
2022/06/12 10:43:56;;;;;;;;;1.50;1.00;;;;;34.99;21.02;101539.81;5019929;28;45510;-77
2022/06/12 10:46:30;;;;;;;;;1.00;1.00;;;;;34.66;21.26;101520.50;5016646;28;45502;-79
2022/06/12 10:49:15;;;;;;;;;1.75;1.00;;;;;34.03;22.00;101518.97;5033922;28;46444;-77
2022/06/12 10:51:41;;;;;;;;;3.00;1.75;;;;;34.08;22.79;101517.47;5012518;28;45554;-73
2022/06/12 10:54:17;;;;;;;;;1.00;1.00;;;;;34.57;22.26;101519.59;5021167;28;45481;-73
2022/06/12 10:57:05;;;;;;;;;1.00;1.00;;;;;34.75;21.41;101507.66;5016334;28;45434;-74
2022/06/12 10:59:36;;;;;;;;;0.25;0.00;;;;;34.60;21.94;101504.69;5018590;28;45333;-73
2022/06/12 11:02:20;;;;;;;;;46.50;36.75;;;;;34.71;20.78;101498.88;5022896;28;45612;-74
2022/06/12 11:05:07;;;;;;;;;3.75;3.75;;;;;34.82;21.62;101509.59;5018637;28;46228;-75
2022/06/12 11:07:56;;;;;;;;;2.75;1.00;;;;;34.45;21.52;101499.88;5016531;28;45477;-73
2022/06/12 11:10:50;;;;;;;;;1.75;1.75;;;;;34.33;21.80;101501.16;5023247;28;46515;-74
2022/06/12 11:13:37;;;;;;;;;3.75;1.50;;;;;34.37;22.42;101488.84;5023851;28;45395;-72
2022/06/12 11:16:20;;;;;;;;;2.00;2.00;;;;;34.40;22.84;101499.47;5011833;28;45647;-75
2022/06/12 11:19:15;;;;;;;;;4.50;1.75;;;;;34.35;22.29;101496.38;5025569;28;45658;-74
2022/06/12 11:21:56;;;;;;;;;1.50;1.00;;;;;34.22;21.42;101487.72;5020033;28;46375;-72
2022/06/12 11:24:29;;;;;;;;;2.00;2.00;;;;;34.34;22.74;101483.69;5023729;28;45402;-76
2022/06/12 11:27:34;;;;;;;;;2.75;2.75;;;;;34.43;21.85;101481.84;5015790;28;45483;-76
2022/06/12 11:30:19;;;;;;;;;1.75;1.75;;;;;34.62;22.15;101475.19;5025971;28;45561;-77
2022/06/12 11:33:17;;;;;;;;;2.50;1.00;;;;;34.61;21.33;101465.25;5027151;28;46001;-75
2022/06/12 11:35:53;;;;;;;;;2.00;2.00;;;;;34.58;21.07;101465.59;5018587;28;45430;-76
2022/06/12 11:38:40;;;;;;;;;1.00;1.00;;;;;34.45;20.23;101463.31;5024928;28;45527;-76
2022/06/12 11:41:21;;;;;;;;;2.00;2.00;;;;;34.39;20.21;101459.34;5023123;28;45715;-75
2022/06/12 11:44:05;;;;;;;;;1.75;0.75;;;;;34.38;19.77;101463.13;5005893;28;45467;-78
2022/06/12 11:46:51;;;;;;;;;3.00;1.00;;;;;34.15;19.72;101444.50;5014592;28;45491;-74
2022/06/12 11:49:25;;;;;;;;;3.00;2.00;;;;;34.16;20.32;101443.50;5018631;28;45379;-80
2022/06/12 11:52:19;;;;;;;;;1.50;1.50;;;;;34.05;20.86;101434.69;5019876;28;45562;-81
2022/06/12 11:55:00;;;;;;;;;1.50;1.50;;;;;33.99;20.65;101442.53;5018821;28;46666;-81
2022/06/12 11:57:44;;;;;;;;;1.75;1.75;;;;;34.01;21.12;101439.63;5020667;28;45399;-81
2022/06/12 12:00:12;;;;;;;;;1.00;1.00;;;;;33.44;21.94;101443.72;5011241;28;45374;-81
2022/06/12 12:02:44;;;;;;;;;2.25;2.25;;;;;33.19;22.23;101439.03;5013679;28;45357;-79
2022/06/12 12:05:31;;;;;;;;;1.00;1.00;;;;;32.99;23.46;101436.47;5013609;28;45607;-80
2022/06/12 12:08:02;;;;;;;;;2.50;2.50;;;;;32.76;22.66;101439.69;5027460;28;45435;-80
2022/06/12 12:10:47;;;;;;;;;2.00;2.00;;;;;32.54;22.03;101434.63;5023362;28;45562;-81